createdAt,value
2017-09-27T00:00:55.178Z,12.10
2017-09-27T00:03:22.839Z,12.07
2017-09-27T00:05:50.410Z,11.73
2017-09-27T00:08:17.978Z,12.48
2017-09-27T00:10:45.599Z,11.35
2017-09-27T00:13:13.215Z,12.37
2017-09-27T00:15:41.558Z,12.18
2017-09-27T00:18:09.151Z,11.27
2017-09-27T00:20:37.538Z,10.80
2017-09-27T00:23:05.931Z,11.32
2017-09-27T00:25:33.502Z,14.45
2017-09-27T00:28:01.083Z,12.30
2017-09-27T00:30:28.706Z,12.13
2017-09-27T00:32:57.048Z,11.07
2017-09-27T00:35:24.667Z,10.60
2017-09-27T00:37:52.246Z,12.00
2017-09-27T00:40:19.818Z,11.20
2017-09-27T00:42:47.443Z,11.60
2017-09-27T00:45:15.043Z,11.18
2017-09-27T00:47:42.656Z,13.15
2017-09-27T00:50:10.265Z,11.65
2017-09-27T00:52:37.898Z,12.65
2017-09-27T00:55:05.478Z,11.40
2017-09-27T00:57:33.047Z,10.98
2017-09-27T01:00:00.673Z,13.30
2017-09-27T01:02:28.291Z,11.63
2017-09-27T01:04:55.858Z,12.20
2017-09-27T01:07:23.476Z,11.52
2017-09-27T01:09:51.046Z,12.45
2017-09-27T01:12:18.676Z,11.32
2017-09-27T01:14:46.248Z,12.20
2017-09-27T01:17:13.815Z,13.30
2017-09-27T01:19:41.451Z,11.52
2017-09-27T01:22:09.796Z,13.10
2017-09-27T01:24:37.390Z,12.10
2017-09-27T01:27:05.807Z,14.60
2017-09-27T01:29:33.388Z,12.32
2017-09-27T01:32:00.971Z,11.88
2017-09-27T01:34:28.583Z,13.00
2017-09-27T01:36:56.215Z,11.77
2017-09-27T01:39:24.556Z,13.02
2017-09-27T01:41:52.199Z,12.82
2017-09-27T01:44:19.782Z,13.35
2017-09-27T01:46:47.401Z,14.45
2017-09-27T01:49:15.012Z,13.95
2017-09-27T01:51:42.626Z,12.25
2017-09-27T01:54:10.264Z,13.75
2017-09-27T01:56:37.847Z,13.07
2017-09-27T01:59:05.465Z,13.85
2017-09-27T02:01:33.042Z,13.27
2017-09-27T02:04:01.474Z,15.27
2017-09-27T02:06:29.080Z,15.73
2017-09-27T02:08:57.480Z,14.43
2017-09-27T02:11:25.058Z,16.30
2017-09-27T02:13:53.420Z,14.27
2017-09-27T02:16:21.039Z,14.27
2017-09-27T02:18:48.608Z,13.80
2017-09-27T02:21:16.197Z,14.20
2017-09-27T02:23:43.794Z,15.45
2017-09-27T02:26:11.426Z,13.98
2017-09-27T02:28:39.003Z,18.85
2017-09-27T02:31:06.576Z,16.60
2017-09-27T02:33:34.192Z,16.83
2017-09-27T02:36:02.571Z,18.15
2017-09-27T02:38:30.979Z,20.00
2017-09-27T02:40:58.612Z,18.30
2017-09-27T02:43:26.190Z,16.85
2017-09-27T02:45:53.774Z,18.33
2017-09-27T02:48:21.393Z,19.60
2017-09-27T02:50:49.803Z,21.90
2017-09-27T02:53:17.380Z,19.85
2017-09-27T02:55:44.957Z,21.48
2017-09-27T02:58:12.567Z,20.80
2017-09-27T03:00:40.160Z,18.25
2017-09-27T03:03:07.777Z,21.85
2017-09-27T03:05:36.105Z,20.20
2017-09-27T03:08:03.684Z,19.17
2017-09-27T03:10:31.311Z,20.90
2017-09-27T03:12:58.911Z,22.30
2017-09-27T03:15:26.506Z,21.75
2017-09-27T03:17:54.103Z,20.45
2017-09-27T03:20:21.670Z,21.75
2017-09-27T03:22:49.310Z,21.92
2017-09-27T03:25:16.931Z,20.05
2017-09-27T03:27:44.513Z,21.62
2017-09-27T03:30:12.860Z,21.17
2017-09-27T03:32:40.476Z,21.37
2017-09-27T03:35:08.058Z,23.05
2017-09-27T03:37:35.644Z,21.80
2017-09-27T03:40:03.314Z,20.50
2017-09-27T03:42:30.950Z,22.02
2017-09-27T03:44:58.518Z,20.67
2017-09-27T03:47:26.110Z,20.80
2017-09-27T03:49:54.507Z,19.30
2017-09-27T03:52:22.082Z,18.45
2017-09-27T03:54:49.650Z,19.87
2017-09-27T03:57:17.252Z,19.83
2017-09-27T03:59:44.889Z,18.58
2017-09-27T04:02:12.519Z,19.30
2017-09-27T04:04:40.100Z,18.42
2017-09-27T04:07:07.712Z,20.05
2017-09-27T04:09:36.086Z,21.15
2017-09-27T04:12:03.703Z,19.08
2017-09-27T04:14:31.276Z,23.38
2017-09-27T04:16:58.848Z,22.70
2017-09-27T04:19:26.475Z,21.75
2017-09-27T04:21:54.039Z,19.83
2017-09-27T04:24:21.617Z,22.73
2017-09-27T04:26:49.242Z,23.83
2017-09-27T04:29:16.866Z,21.42
2017-09-27T04:31:44.486Z,21.85
2017-09-27T04:34:12.123Z,24.92
2017-09-27T04:36:40.451Z,22.90
2017-09-27T04:39:08.032Z,24.33
2017-09-27T04:41:35.655Z,22.52
2017-09-27T04:44:03.226Z,22.77
2017-09-27T04:46:30.855Z,23.85
2017-09-27T04:48:58.432Z,24.73
2017-09-27T04:51:26.007Z,26.17
2017-09-27T04:53:53.632Z,31.73
2017-09-27T04:56:21.232Z,27.90
2017-09-27T04:58:48.840Z,30.33
2017-09-27T05:01:17.214Z,30.05
2017-09-27T05:03:45.551Z,32.53
2017-09-27T05:06:13.177Z,32.40
2017-09-27T05:08:40.754Z,26.20
2017-09-27T05:11:08.346Z,30.37
2017-09-27T05:13:35.963Z,34.45
2017-09-27T05:16:03.535Z,33.58
2017-09-27T05:18:31.116Z,28.00
2017-09-27T05:20:58.726Z,29.77
2017-09-27T05:23:27.109Z,34.83
2017-09-27T05:25:55.447Z,31.75
2017-09-27T05:28:23.057Z,32.65
2017-09-27T05:30:50.635Z,36.22
2017-09-27T05:33:18.259Z,36.15
2017-09-27T05:35:46.600Z,30.55
2017-09-27T05:38:14.203Z,31.75
2017-09-27T05:40:42.574Z,32.92
2017-09-27T05:43:10.252Z,30.58
2017-09-27T05:45:37.892Z,31.95
2017-09-27T05:48:05.456Z,37.03
2017-09-27T05:50:33.050Z,37.47
2017-09-27T05:53:00.901Z,31.60
2017-09-27T05:55:29.284Z,33.65
2017-09-27T05:57:56.854Z,34.75
2017-09-27T06:00:24.428Z,32.67
2017-09-27T06:02:52.042Z,30.15
2017-09-27T06:05:19.664Z,30.12
2017-09-27T06:07:47.234Z,27.70
2017-09-27T06:10:14.857Z,31.95
2017-09-27T06:12:42.429Z,29.17
2017-09-27T06:15:10.196Z,28.10
2017-09-27T06:17:37.849Z,27.05
2017-09-27T06:20:05.419Z,33.65
2017-09-27T06:22:32.989Z,30.23
2017-09-27T06:25:00.644Z,31.80
2017-09-27T06:27:28.212Z,30.85
2017-09-27T06:29:55.777Z,26.30
2017-09-27T06:32:23.402Z,30.30
2017-09-27T06:34:52.677Z,30.88
2017-09-27T06:37:20.262Z,32.10
2017-09-27T06:39:48.648Z,31.90
2017-09-27T06:42:16.255Z,32.42
2017-09-27T06:44:44.074Z,29.37
2017-09-27T06:47:12.401Z,27.08
2017-09-27T06:49:40.383Z,35.30
2017-09-27T06:52:08.038Z,34.33
2017-09-27T06:54:35.649Z,33.08
2017-09-27T06:57:03.222Z,34.60
2017-09-27T06:59:30.794Z,37.45
2017-09-27T07:01:58.430Z,35.35
2017-09-27T07:04:26.022Z,28.20
2017-09-27T07:06:53.602Z,28.30
2017-09-27T07:09:21.202Z,34.97
2017-09-27T07:11:49.532Z,31.90
2017-09-27T07:14:17.147Z,34.35
2017-09-27T07:16:45.539Z,33.60
2017-09-27T07:19:19.010Z,33.00
2017-09-27T07:21:47.468Z,29.92
2017-09-27T07:24:15.097Z,31.12
2017-09-27T07:26:43.516Z,44.33
2017-09-27T07:29:11.887Z,33.08
2017-09-27T07:31:39.506Z,30.45
2017-09-27T07:34:07.112Z,30.65
2017-09-27T07:36:34.742Z,31.60
2017-09-27T07:39:03.077Z,29.25
2017-09-27T07:41:31.484Z,29.52
2017-09-27T07:44:00.115Z,30.27
2017-09-27T07:46:27.694Z,33.97
2017-09-27T07:48:55.323Z,32.35
2017-09-27T07:51:22.894Z,30.08
2017-09-27T07:53:50.507Z,30.02
2017-09-27T07:56:18.092Z,33.85
2017-09-27T07:58:45.703Z,32.67
2017-09-27T08:01:13.342Z,29.20
2017-09-27T08:03:40.931Z,32.50
2017-09-27T08:06:09.302Z,37.03
2017-09-27T08:08:36.920Z,31.30
2017-09-27T08:11:04.535Z,40.45
2017-09-27T08:13:38.136Z,36.42
2017-09-27T08:16:06.503Z,38.80
2017-09-27T08:18:34.149Z,32.33
2017-09-27T08:21:01.714Z,31.05
2017-09-27T08:23:29.306Z,32.30
2017-09-27T08:25:57.721Z,30.85
2017-09-27T08:28:25.320Z,32.33
2017-09-27T08:30:52.927Z,30.92
2017-09-27T08:33:21.816Z,29.73
2017-09-27T08:35:49.422Z,34.53
2017-09-27T08:38:17.014Z,28.33
2017-09-27T08:40:45.430Z,27.67
2017-09-27T08:43:13.016Z,27.27
2017-09-27T08:45:40.620Z,23.87
2017-09-27T08:48:09.039Z,26.17
2017-09-27T08:50:36.674Z,29.07
2017-09-27T08:53:05.046Z,26.13
2017-09-27T08:55:32.756Z,26.30
2017-09-27T08:58:00.393Z,26.40
2017-09-27T09:00:27.975Z,26.00
2017-09-27T09:02:55.622Z,23.20
2017-09-27T09:05:23.350Z,28.20
2017-09-27T09:07:51.750Z,22.50
2017-09-27T09:10:20.191Z,26.37
2017-09-27T09:12:48.683Z,25.43
2017-09-27T09:15:16.415Z,25.17
2017-09-27T09:17:44.003Z,23.10
2017-09-27T09:20:11.596Z,23.67
2017-09-27T09:22:39.211Z,20.97
2017-09-27T09:25:06.781Z,20.47
2017-09-27T09:27:35.203Z,25.87
2017-09-27T09:30:02.777Z,19.50
2017-09-27T09:32:30.356Z,21.73
2017-09-27T09:34:58.069Z,28.80
2017-09-27T09:37:26.478Z,23.13
2017-09-27T09:39:54.103Z,19.07
2017-09-27T09:42:25.002Z,18.60
2017-09-27T09:44:52.665Z,26.00
2017-09-27T09:47:21.013Z,21.93
2017-09-27T09:49:48.596Z,22.37
2017-09-27T09:52:16.314Z,20.60
2017-09-27T09:54:44.043Z,22.87
2017-09-27T09:57:12.802Z,22.00
2017-09-27T09:59:40.370Z,19.50
2017-09-27T10:02:07.980Z,19.27
2017-09-27T10:04:35.886Z,17.37
2017-09-27T10:07:04.580Z,19.60
2017-09-27T10:09:32.238Z,18.93
2017-09-27T10:12:17.037Z,17.97
2017-09-27T10:15:06.519Z,18.53
2017-09-27T10:17:36.278Z,21.00
2017-09-27T10:20:03.907Z,20.03
2017-09-27T10:22:31.538Z,21.37
2017-09-27T10:24:59.213Z,17.07
2017-09-27T10:27:26.792Z,17.40
2017-09-27T10:29:54.383Z,17.40
2017-09-27T10:32:22.753Z,16.07
2017-09-27T10:34:51.099Z,18.27
2017-09-27T10:37:18.711Z,15.37
2017-09-27T10:39:46.356Z,14.50
2017-09-27T10:42:14.729Z,13.47
2017-09-27T10:44:43.113Z,13.17
2017-09-27T10:47:11.459Z,14.73
2017-09-27T10:49:39.143Z,13.60
2017-09-27T10:52:07.547Z,12.00
2017-09-27T10:54:35.174Z,14.17
2017-09-27T10:57:02.772Z,15.53
2017-09-27T10:59:30.442Z,15.00
2017-09-27T11:01:58.034Z,14.50
2017-09-27T11:04:26.307Z,13.20
2017-09-27T11:06:55.298Z,15.20
2017-09-27T11:09:25.049Z,14.73
2017-09-27T11:11:52.670Z,15.30
2017-09-27T11:14:20.437Z,13.30
2017-09-27T11:16:48.065Z,15.93
2017-09-27T11:19:15.722Z,15.17
2017-09-27T11:21:43.416Z,19.20
2017-09-27T11:24:10.999Z,18.50
2017-09-27T11:26:38.576Z,18.10
2017-09-27T11:29:06.204Z,15.70
2017-09-27T11:31:34.550Z,19.93
2017-09-27T11:34:02.916Z,17.23
2017-09-27T11:36:31.304Z,18.77
2017-09-27T11:38:59.704Z,18.40
2017-09-27T11:41:27.370Z,17.70
2017-09-27T11:43:54.962Z,19.30
2017-09-27T11:46:23.450Z,16.77
2017-09-27T11:48:51.072Z,15.20
2017-09-27T11:51:18.742Z,16.67
2017-09-27T11:53:46.396Z,16.10
2017-09-27T11:56:14.046Z,15.70
2017-09-27T11:58:41.744Z,13.70
2017-09-27T12:01:09.341Z,13.13
2017-09-27T12:03:36.919Z,12.37
2017-09-27T12:06:04.534Z,13.90
2017-09-27T12:08:32.158Z,13.97
2017-09-27T12:11:00.541Z,13.57
2017-09-27T12:13:28.151Z,11.60
2017-09-27T12:15:55.762Z,16.90
2017-09-27T12:18:23.396Z,13.30
2017-09-27T12:20:51.750Z,12.33
2017-09-27T12:23:19.379Z,10.10
2017-09-27T12:25:47.792Z,10.93
2017-09-27T12:28:15.385Z,10.30
2017-09-27T12:30:43.852Z,10.50
2017-09-27T12:33:11.433Z,9.23
2017-09-27T12:35:39.817Z,8.00
2017-09-27T12:38:08.954Z,13.07
2017-09-27T12:40:36.532Z,10.07
2017-09-27T12:43:04.097Z,12.40
2017-09-27T12:45:31.707Z,11.60
2017-09-27T12:47:59.275Z,10.37
2017-09-27T12:50:26.915Z,11.13
2017-09-27T12:52:55.260Z,12.63
2017-09-27T12:55:22.841Z,11.13
2017-09-27T12:57:51.485Z,10.67
2017-09-27T13:00:19.064Z,14.43
2017-09-27T13:02:46.774Z,13.63
2017-09-27T13:05:14.355Z,10.40
2017-09-27T13:07:42.008Z,11.53
2017-09-27T13:10:09.570Z,12.47
2017-09-27T13:12:37.159Z,12.00
2017-09-27T13:15:04.795Z,12.50
2017-09-27T13:17:32.455Z,12.67
2017-09-27T13:20:00.105Z,11.53
2017-09-27T13:22:28.443Z,12.33
2017-09-27T13:25:04.328Z,12.97
2017-09-27T13:27:32.670Z,13.33
2017-09-27T13:30:00.276Z,13.77
2017-09-27T13:32:28.922Z,12.90
2017-09-27T13:34:56.537Z,13.63
2017-09-27T13:37:24.148Z,13.40
2017-09-27T13:39:51.741Z,13.90
2017-09-27T13:42:20.122Z,13.60
2017-09-27T13:44:48.459Z,13.83
2017-09-27T13:47:16.120Z,13.43
2017-09-27T13:49:43.738Z,15.67
2017-09-27T13:52:11.316Z,15.30
2017-09-27T13:54:38.881Z,15.30
2017-09-27T13:57:06.524Z,15.20
2017-09-27T13:59:34.136Z,16.30
2017-09-27T14:02:01.719Z,14.30
2017-09-27T14:04:30.119Z,14.33
2017-09-27T14:06:57.725Z,21.10
2017-09-27T14:09:25.343Z,15.03
2017-09-27T14:11:52.987Z,16.70
2017-09-27T14:14:21.327Z,14.03
2017-09-27T14:16:48.938Z,14.50
2017-09-27T14:19:16.505Z,14.83
2017-09-27T14:21:44.116Z,13.90
2017-09-27T14:24:11.693Z,15.17
2017-09-27T14:26:39.271Z,14.10
2017-09-27T14:29:07.660Z,14.13
2017-09-27T14:31:35.996Z,23.60
2017-09-27T14:34:03.665Z,15.50
2017-09-27T14:36:31.283Z,16.10
2017-09-27T14:38:58.934Z,12.43
2017-09-27T14:41:26.665Z,13.37
2017-09-27T14:43:54.271Z,11.37
2017-09-27T14:46:22.346Z,12.20
2017-09-27T14:48:50.024Z,14.63
2017-09-27T14:51:17.619Z,12.70
2017-09-27T14:53:45.237Z,12.13
2017-09-27T14:56:12.862Z,11.20
2017-09-27T14:58:41.246Z,12.80
2017-09-27T15:01:09.592Z,10.70
2017-09-27T15:03:37.176Z,10.27
2017-09-27T15:06:04.814Z,12.07
2017-09-27T15:08:32.419Z,12.50
2017-09-27T15:11:00.026Z,10.80
2017-09-27T15:13:27.629Z,12.17
2017-09-27T15:15:56.105Z,12.53
2017-09-27T15:18:24.466Z,11.70
2017-09-27T15:20:52.864Z,12.00
2017-09-27T15:23:21.250Z,12.43
2017-09-27T15:26:06.050Z,11.60
2017-09-27T15:28:35.112Z,10.97
2017-09-27T15:31:06.466Z,11.07
2017-09-27T15:33:34.116Z,10.90
2017-09-27T15:36:02.470Z,12.10
2017-09-27T15:38:30.257Z,11.77
2017-09-27T15:40:58.975Z,10.90
2017-09-27T15:43:26.542Z,9.50
2017-09-27T15:45:54.358Z,10.30
2017-09-27T15:48:22.006Z,11.80
2017-09-27T15:50:49.617Z,10.87
2017-09-27T15:53:36.177Z,9.63
2017-09-27T15:56:05.263Z,11.43
2017-09-27T15:58:32.871Z,9.00
2017-09-27T16:01:00.500Z,9.53
2017-09-27T16:03:28.113Z,9.97
2017-09-27T16:05:55.702Z,10.23
2017-09-27T16:08:26.441Z,18.63
2017-09-27T16:10:54.918Z,11.73
2017-09-27T16:13:23.257Z,9.47
2017-09-27T16:15:52.947Z,8.17
2017-09-27T16:18:23.006Z,9.97
2017-09-27T16:20:52.737Z,9.30
2017-09-27T16:23:22.416Z,10.10
2017-09-27T16:25:53.148Z,10.47
2017-09-27T16:28:22.684Z,10.10
2017-09-27T16:30:52.423Z,8.93
2017-09-27T16:33:21.959Z,9.87
2017-09-27T16:35:51.635Z,9.10
2017-09-27T16:38:21.468Z,9.43
2017-09-27T16:40:52.345Z,10.20
2017-09-27T16:43:23.828Z,13.60
2017-09-27T16:45:53.933Z,10.30
2017-09-27T16:48:24.554Z,8.73
2017-09-27T16:50:55.353Z,11.50
2017-09-27T16:53:25.979Z,10.10
2017-09-27T16:55:56.338Z,10.40
2017-09-27T16:58:26.224Z,10.97
2017-09-27T17:00:57.660Z,9.33
2017-09-27T17:03:27.541Z,10.37
2017-09-27T17:05:57.197Z,9.50
2017-09-27T17:08:28.759Z,10.47
2017-09-27T17:10:58.615Z,11.97
2017-09-27T17:13:28.571Z,11.80
2017-09-27T17:15:59.204Z,10.60
2017-09-27T17:18:28.840Z,12.00
2017-09-27T17:20:58.605Z,12.43
2017-09-27T17:23:29.725Z,12.50
2017-09-27T17:25:59.551Z,11.13
2017-09-27T17:28:29.158Z,10.70
2017-09-27T17:31:01.019Z,10.90
2017-09-27T17:33:33.822Z,11.30
2017-09-27T17:36:04.970Z,10.17
2017-09-27T17:38:35.015Z,11.47
2017-09-27T17:41:04.809Z,11.23
2017-09-27T17:43:35.514Z,13.00
2017-09-27T17:46:06.603Z,9.90
2017-09-27T17:48:37.976Z,11.30
2017-09-27T17:51:07.538Z,10.40
2017-09-27T17:53:37.405Z,12.10
2017-09-27T17:56:07.344Z,11.67
2017-09-27T17:58:37.356Z,10.77
2017-09-27T18:01:06.935Z,10.60
2017-09-27T18:03:37.706Z,10.67
2017-09-27T18:06:22.873Z,10.63
2017-09-27T18:08:59.134Z,10.80
2017-09-27T18:11:34.184Z,12.63
2017-09-27T18:14:20.657Z,11.30
2017-09-27T18:17:05.976Z,10.70
2017-09-27T18:19:36.103Z,10.97
2017-09-27T18:22:07.346Z,11.90
2017-09-27T18:24:37.931Z,12.30
2017-09-27T18:27:08.543Z,12.30
2017-09-27T18:29:38.472Z,12.00
2017-09-27T18:32:08.601Z,13.40
2017-09-27T18:34:39.181Z,13.60
2017-09-27T18:37:08.998Z,13.80
2017-09-27T18:39:38.776Z,13.13
2017-09-27T18:42:08.603Z,13.50
2017-09-27T18:44:38.304Z,12.70
2017-09-27T18:47:07.964Z,12.90
2017-09-27T18:49:38.639Z,14.40
2017-09-27T18:52:08.227Z,13.80
2017-09-27T18:54:38.152Z,13.87
2017-09-27T18:57:08.018Z,14.80
2017-09-27T18:59:38.488Z,14.53
2017-09-27T19:02:08.080Z,13.52
2017-09-27T19:04:37.442Z,13.57
2017-09-27T19:07:08.219Z,11.90
2017-09-27T19:09:38.093Z,11.90
2017-09-27T19:12:08.540Z,12.10
2017-09-27T19:14:39.735Z,11.82
2017-09-27T19:17:10.921Z,11.80
2017-09-27T19:19:42.574Z,10.60
2017-09-27T19:22:12.962Z,10.93
2017-09-27T19:24:42.620Z,12.50
2017-09-27T19:27:13.217Z,10.02
2017-09-27T19:29:44.116Z,11.95
2017-09-27T19:32:13.894Z,13.05
2017-09-27T19:34:44.016Z,12.20
2017-09-27T19:37:14.338Z,12.30
2017-09-27T19:39:44.968Z,11.63
2017-09-27T19:42:14.685Z,12.73
2017-09-27T19:44:46.353Z,11.90
2017-09-27T19:47:16.958Z,11.25
2017-09-27T19:49:47.627Z,11.18
2017-09-27T19:52:17.308Z,11.40
2017-09-27T19:54:48.156Z,10.88
2017-09-27T19:57:18.861Z,10.98
2017-09-27T19:59:50.352Z,11.12
2017-09-27T20:02:21.080Z,11.52
2017-09-27T20:04:50.880Z,10.88
2017-09-27T20:07:20.883Z,11.60
2017-09-27T20:09:50.812Z,12.07
2017-09-27T20:12:22.118Z,10.65
2017-09-27T20:14:52.821Z,11.05
2017-09-27T20:17:23.372Z,12.55
2017-09-27T20:19:53.008Z,11.10
2017-09-27T20:22:32.492Z,10.35
2017-09-27T20:25:02.247Z,11.70
2017-09-27T20:27:31.978Z,11.02
2017-09-27T20:30:01.631Z,11.23
2017-09-27T20:32:32.379Z,12.10
2017-09-27T20:35:02.399Z,11.80
2017-09-27T20:37:32.959Z,11.90
2017-09-27T20:40:03.672Z,13.88
2017-09-27T20:42:33.375Z,13.77
2017-09-27T20:45:04.180Z,13.93
2017-09-27T20:47:34.787Z,14.60
2017-09-27T20:50:04.325Z,12.68
2017-09-27T20:52:34.187Z,12.77
2017-09-27T20:55:04.708Z,15.63
2017-09-27T20:57:34.518Z,13.80
2017-09-27T21:00:04.233Z,14.60
2017-09-27T21:02:34.700Z,15.48
2017-09-27T21:05:04.450Z,15.10
2017-09-27T21:07:36.219Z,15.20
2017-09-27T21:10:07.378Z,17.35
2017-09-27T21:12:38.238Z,15.05
2017-09-27T21:15:08.362Z,15.23
2017-09-27T21:17:39.161Z,16.50
2017-09-27T21:20:17.833Z,15.13
2017-09-27T21:22:57.704Z,15.45
2017-09-27T21:25:27.893Z,16.77
2017-09-27T21:27:57.879Z,17.00
2017-09-27T21:30:27.782Z,15.57
2017-09-27T21:32:57.677Z,15.57
2017-09-27T21:35:28.353Z,16.35
2017-09-27T21:37:59.141Z,15.38
2017-09-27T21:40:29.729Z,14.43
2017-09-27T21:42:59.352Z,14.60
2017-09-27T21:45:29.294Z,16.52
2017-09-27T21:48:00.633Z,14.95
2017-09-27T21:50:31.098Z,14.55
2017-09-27T21:53:00.806Z,13.25
2017-09-27T21:55:30.699Z,15.23
2017-09-27T21:58:01.923Z,14.23
2017-09-27T22:00:31.812Z,14.93
2017-09-27T22:03:01.485Z,13.20
2017-09-27T22:05:31.235Z,16.85
2017-09-27T22:08:01.046Z,15.30
2017-09-27T22:10:33.454Z,15.40
2017-09-27T22:13:07.391Z,16.20
2017-09-27T22:15:38.730Z,16.37
2017-09-27T22:18:09.431Z,16.37
2017-09-27T22:20:39.118Z,16.62
2017-09-27T22:23:08.746Z,16.27
2017-09-27T22:25:39.436Z,14.82
2017-09-27T22:28:10.941Z,15.50
2017-09-27T22:30:42.701Z,15.88
2017-09-27T22:33:13.355Z,17.40
2017-09-27T22:35:45.286Z,17.58
2017-09-27T22:38:15.153Z,15.20
2017-09-27T22:40:44.793Z,15.13
2017-09-27T22:43:21.628Z,16.75
2017-09-27T22:45:52.272Z,15.80
2017-09-27T22:48:22.081Z,14.75
2017-09-27T22:50:52.146Z,15.45
2017-09-27T22:53:22.851Z,15.30
2017-09-27T22:55:54.673Z,13.38
2017-09-27T22:58:25.169Z,14.18
2017-09-27T23:00:55.031Z,14.07
2017-09-27T23:03:28.766Z,13.00
2017-09-27T23:05:58.533Z,12.20
2017-09-27T23:08:30.900Z,11.75
2017-09-27T23:11:01.376Z,12.50
2017-09-27T23:13:31.151Z,12.52
2017-09-27T23:16:04.355Z,12.65
2017-09-27T23:18:35.856Z,15.20
2017-09-27T23:21:08.318Z,13.05
2017-09-27T23:23:38.004Z,12.57
2017-09-27T23:26:11.379Z,12.88
2017-09-27T23:28:42.742Z,13.73
2017-09-27T23:31:13.836Z,13.13
2017-09-27T23:33:43.556Z,13.98
2017-09-27T23:36:12.919Z,14.40
2017-09-27T23:38:45.474Z,11.88
2017-09-27T23:41:15.363Z,13.43
2017-09-27T23:43:45.760Z,12.85
2017-09-27T23:46:16.628Z,12.32
2017-09-27T23:48:47.095Z,14.10
2017-09-27T23:51:16.943Z,13.95
2017-09-27T23:53:46.678Z,12.18
2017-09-27T23:56:20.733Z,13.02
2017-09-27T23:58:50.659Z,12.80
